Time,TemperatureF,DewpointF,PressureIn,WindDirection,WindDirectionDegrees,WindSpeedMPH,WindSpeedGustMPH,Humidity,HourlyPrecipIn,Conditions,Clouds,dailyrainin,SoftwareType,DateUTC
2013-01-08 00:12:00,42.8,42.0,30.07,NE,43,1.0,3.0,97,0.00,,,0.00,weatherlink.com 1.10,2013-01-08 08:12:00,
2013-01-08 00:27:00,42.5,42.0,30.07,NE,36,1.0,2.0,97,0.00,,,0.00,weatherlink.com 1.10,2013-01-08 08:27:00,
2013-01-08 00:42:00,42.2,41.0,30.07,NNE,25,0.0,2.0,97,0.00,,,0.00,weatherlink.com 1.10,2013-01-08 08:42:00,
2013-01-08 00:57:00,42.3,42.0,30.08,NE,53,0.0,1.0,97,0.00,,,0.00,weatherlink.com 1.10,2013-01-08 08:57:00,
2013-01-08 01:12:00,42.2,41.0,30.08,North,355,0.0,2.0,97,0.01,,,0.01,weatherlink.com 1.10,2013-01-08 09:12:00,
2013-01-08 01:27:00,42.1,41.0,30.08,NE,50,1.0,2.0,97,0.01,,,0.01,weatherlink.com 1.10,2013-01-08 09:27:00,
2013-01-08 01:42:00,42.1,41.0,30.08,ENE,73,0.0,1.0,97,0.01,,,0.01,weatherlink.com 1.10,2013-01-08 09:42:00,
2013-01-08 01:57:00,41.9,41.0,30.08,East,94,1.0,2.0,97,0.01,,,0.01,weatherlink.com 1.10,2013-01-08 09:57:00,
2013-01-08 02:12:00,41.8,41.0,30.08,NNE,33,1.0,1.0,97,0.00,,,0.01,weatherlink.com 1.10,2013-01-08 10:12:00,
2013-01-08 02:27:00,42.0,42.0,30.08,NNE,29,1.0,2.0,98,0.00,,,0.01,weatherlink.com 1.10,2013-01-08 10:27:00,
2013-01-08 02:42:00,41.9,41.0,30.08,NNE,26,2.0,3.0,98,0.00,,,0.01,weatherlink.com 1.10,2013-01-08 10:42:00,
2013-01-08 02:57:00,42.1,42.0,30.08,ENE,58,1.0,3.0,98,0.00,,,0.01,weatherlink.com 1.10,2013-01-08 10:57:00,
2013-01-08 03:12:00,42.0,42.0,30.07,NE,45,1.0,2.0,98,0.00,,,0.01,weatherlink.com 1.10,2013-01-08 11:12:00,
2013-01-08 03:27:00,41.7,41.0,30.07,ENE,59,1.0,1.0,97,0.00,,,0.01,weatherlink.com 1.10,2013-01-08 11:27:00,
2013-01-08 03:42:00,41.6,41.0,30.06,NE,40,1.0,3.0,98,0.00,,,0.01,weatherlink.com 1.10,2013-01-08 11:42:00,
2013-01-08 03:57:00,41.7,41.0,30.07,NNE,18,0.0,1.0,98,0.00,,,0.01,weatherlink.com 1.10,2013-01-08 11:57:00,
2013-01-08 04:12:00,41.2,40.0,30.07,NNE,13,1.0,1.0,97,0.00,,,0.01,weatherlink.com 1.10,2013-01-08 12:12:00,
2013-01-08 04:27:00,41.0,41.0,30.07,NE,46,0.0,2.0,98,0.00,,,0.01,weatherlink.com 1.10,2013-01-08 12:27:00,
2013-01-08 04:42:00,40.8,40.0,30.07,NE,54,1.0,2.0,98,0.00,,,0.01,weatherlink.com 1.10,2013-01-08 12:42:00,
2013-01-08 04:57:00,41.0,41.0,30.07,NE,42,1.0,3.0,98,0.00,,,0.01,weatherlink.com 1.10,2013-01-08 12:57:00,
2013-01-08 05:12:00,40.7,40.0,30.07,NE,42,2.0,2.0,98,0.00,,,0.01,weatherlink.com 1.10,2013-01-08 13:12:00,
2013-01-08 05:28:00,40.7,40.0,30.06,NE,36,1.0,2.0,98,0.00,,,0.01,weatherlink.com 1.10,2013-01-08 13:28:00,
2013-01-08 05:43:00,40.4,40.0,30.07,NE,40,0.0,1.0,98,0.00,,,0.01,weatherlink.com 1.10,2013-01-08 13:43:00,
2013-01-08 05:58:00,40.5,40.0,30.07,NNE,20,0.0,1.0,98,0.00,,,0.01,weatherlink.com 1.10,2013-01-08 13:58:00,
2013-01-08 06:13:00,40.6,40.0,30.07,NNE,22,0.0,1.0,98,0.00,,,0.01,weatherlink.com 1.10,2013-01-08 14:13:00,
2013-01-08 06:28:00,41.3,41.0,30.07,NE,36,1.0,2.0,98,0.00,,,0.01,weatherlink.com 1.10,2013-01-08 14:28:00,
2013-01-08 06:43:00,41.5,41.0,30.07,North,360,0.0,2.0,98,0.00,,,0.01,weatherlink.com 1.10,2013-01-08 14:43:00,
2013-01-08 06:58:00,41.1,41.0,30.08,NNE,23,0.0,1.0,98,0.00,,,0.01,weatherlink.com 1.10,2013-01-08 14:58:00,
2013-01-08 07:13:00,40.4,40.0,30.08,NNE,23,0.0,1.0,98,0.00,,,0.01,weatherlink.com 1.10,2013-01-08 15:13:00,
2013-01-08 07:28:00,40.2,40.0,30.08,ENE,75,1.0,1.0,98,0.00,,,0.01,weatherlink.com 1.10,2013-01-08 15:28:00,
2013-01-08 07:43:00,40.9,40.0,30.09,NE,37,0.0,1.0,98,0.00,,,0.01,weatherlink.com 1.10,2013-01-08 15:43:00,
2013-01-08 07:58:00,41.7,41.0,30.09,ENE,57,0.0,1.0,98,0.00,,,0.01,weatherlink.com 1.10,2013-01-08 15:58:00,
2013-01-08 08:13:00,41.9,41.0,30.11,ENE,57,0.0,1.0,98,0.00,,,0.01,weatherlink.com 1.10,2013-01-08 16:13:00,
2013-01-08 08:28:00,42.2,42.0,30.11,NE,37,0.0,1.0,98,0.00,,,0.01,weatherlink.com 1.10,2013-01-08 16:28:00,
2013-01-08 08:43:00,42.7,42.0,30.12,NNE,12,1.0,1.0,98,0.00,,,0.01,weatherlink.com 1.10,2013-01-08 16:43:00,
2013-01-08 08:58:00,44.2,44.0,30.11,East,82,2.0,2.0,98,0.00,,,0.01,weatherlink.com 1.10,2013-01-08 16:58:00,
2013-01-08 09:13:00,45.4,45.0,30.11,NNE,33,0.0,2.0,98,0.00,,,0.01,weatherlink.com 1.10,2013-01-08 17:13:00,
2013-01-08 09:28:00,47.6,47.0,30.11,East,82,0.0,1.0,98,0.00,,,0.01,weatherlink.com 1.10,2013-01-08 17:28:00,
2013-01-08 09:43:00,49.6,49.0,30.11,East,82,0.0,1.0,97,0.00,,,0.01,weatherlink.com 1.10,2013-01-08 17:43:00,
2013-01-08 09:58:00,51.9,49.0,30.11,East,96,0.0,2.0,91,0.00,,,0.01,weatherlink.com 1.10,2013-01-08 17:58:00,
2013-01-08 10:13:00,52.9,49.0,30.11,NW,309,0.0,2.0,87,0.00,,,0.01,weatherlink.com 1.10,2013-01-08 18:13:00,
2013-01-08 10:28:00,53.7,49.0,30.11,NW,313,0.0,2.0,85,0.00,,,0.01,weatherlink.com 1.10,2013-01-08 18:28:00,
2013-01-08 10:43:00,55.1,50.0,30.10,WNW,291,0.0,2.0,82,0.00,,,0.01,weatherlink.com 1.10,2013-01-08 18:43:00,
2013-01-08 10:58:00,55.8,50.0,30.10,WSW,238,3.0,5.0,80,0.00,,,0.01,weatherlink.com 1.10,2013-01-08 18:58:00,
2013-01-08 11:13:00,56.0,50.0,30.09,SE,139,1.0,5.0,80,0.00,,,0.01,weatherlink.com 1.10,2013-01-08 19:13:00,
2013-01-08 11:29:00,56.9,50.0,30.08,WNW,295,0.0,3.0,78,0.00,,,0.01,weatherlink.com 1.10,2013-01-08 19:29:00,
2013-01-08 11:44:00,57.3,50.0,30.07,WSW,252,1.0,5.0,76,0.00,,,0.01,weatherlink.com 1.10,2013-01-08 19:44:00,
2013-01-08 11:59:00,57.8,50.0,30.07,SSW,212,1.0,4.0,74,0.00,,,0.01,weatherlink.com 1.10,2013-01-08 19:59:00,
2013-01-08 12:14:00,58.8,49.0,30.06,SSW,212,3.0,6.0,70,0.00,,,0.01,weatherlink.com 1.10,2013-01-08 20:14:00,
2013-01-08 12:29:00,58.9,50.0,30.05,SSW,200,2.0,4.0,72,0.00,,,0.01,weatherlink.com 1.10,2013-01-08 20:29:00,
2013-01-08 12:44:00,59.0,49.0,30.04,West,266,0.0,4.0,70,0.00,,,0.01,weatherlink.com 1.10,2013-01-08 20:44:00,
2013-01-08 12:59:00,59.6,50.0,30.04,West,281,1.0,6.0,70,0.00,,,0.01,weatherlink.com 1.10,2013-01-08 20:59:00,
2013-01-08 13:14:00,59.6,49.0,30.04,NNW,338,2.0,4.0,69,0.00,,,0.01,weatherlink.com 1.10,2013-01-08 21:14:00,
2013-01-08 13:29:00,59.9,49.0,30.04,WNW,295,5.0,5.0,68,0.00,,,0.01,weatherlink.com 1.10,2013-01-08 21:29:00,
2013-01-08 13:44:00,61.4,49.0,30.03,South,190,2.0,4.0,65,0.00,,,0.01,weatherlink.com 1.10,2013-01-08 21:44:00,
2013-01-08 13:59:00,61.9,49.0,30.03,WNW,283,4.0,4.0,63,0.00,,,0.01,weatherlink.com 1.10,2013-01-08 21:59:00,
2013-01-08 14:14:00,62.0,49.0,30.03,South,186,1.0,6.0,63,0.00,,,0.01,weatherlink.com 1.10,2013-01-08 22:14:00,
2013-01-08 14:29:00,62.4,49.0,30.03,NW,307,2.0,4.0,61,0.00,,,0.01,weatherlink.com 1.10,2013-01-08 22:29:00,
2013-01-08 14:44:00,62.6,49.0,30.03,SSW,212,1.0,3.0,62,0.00,,,0.01,weatherlink.com 1.10,2013-01-08 22:44:00,
2013-01-08 14:59:00,62.8,49.0,30.03,WNW,298,0.0,3.0,60,0.00,,,0.01,weatherlink.com 1.10,2013-01-08 22:59:00,
2013-01-08 15:14:00,63.3,49.0,30.03,SSW,212,0.0,3.0,60,0.00,,,0.01,weatherlink.com 1.10,2013-01-08 23:14:00,
2013-01-08 15:29:00,63.8,49.0,30.02,South,176,0.0,2.0,60,0.00,,,0.01,weatherlink.com 1.10,2013-01-08 23:29:00,
2013-01-08 15:44:00,63.4,49.0,30.02,SSW,208,2.0,2.0,60,0.00,,,0.01,weatherlink.com 1.10,2013-01-08 23:44:00,
2013-01-08 15:59:00,63.4,49.0,30.01,SW,224,0.0,2.0,60,0.00,,,0.01,weatherlink.com 1.10,2013-01-08 23:59:00,
2013-01-08 16:14:00,62.3,49.0,30.01,SW,236,0.0,1.0,62,0.00,,,0.01,weatherlink.com 1.10,2013-01-09 00:14:00,
2013-01-08 16:29:00,61.3,49.0,30.01,SW,233,0.0,0.0,65,0.00,,,0.01,weatherlink.com 1.10,2013-01-09 00:29:00,
2013-01-08 16:44:00,59.3,50.0,30.01,SW,235,0.0,0.0,70,0.00,,,0.01,weatherlink.com 1.10,2013-01-09 00:44:00,
2013-01-08 16:59:00,57.8,50.0,30.01,North,11,0.0,1.0,74,0.00,,,0.01,weatherlink.com 1.10,2013-01-09 00:59:00,
2013-01-08 17:15:00,56.0,50.0,30.01,NNE,12,0.0,1.0,79,0.00,,,0.01,weatherlink.com 1.10,2013-01-09 01:15:00,
2013-01-08 17:30:00,54.2,49.0,30.01,NNE,33,0.0,3.0,83,0.00,,,0.01,weatherlink.com 1.10,2013-01-09 01:30:00,
2013-01-08 17:45:00,52.9,49.0,30.00,North,4,0.0,4.0,87,0.00,,,0.01,weatherlink.com 1.10,2013-01-09 01:45:00,
2013-01-08 18:00:00,52.1,49.0,30.01,NE,36,1.0,4.0,89,0.00,,,0.01,weatherlink.com 1.10,2013-01-09 02:00:00,
2013-01-08 18:15:00,51.4,49.0,30.02,North,9,0.0,2.0,90,0.00,,,0.01,weatherlink.com 1.10,2013-01-09 02:15:00,
2013-01-08 18:30:00,50.8,49.0,30.02,NNE,25,0.0,2.0,92,0.00,,,0.01,weatherlink.com 1.10,2013-01-09 02:30:00,
2013-01-08 18:45:00,50.3,48.0,30.02,North,351,0.0,1.0,92,0.00,,,0.01,weatherlink.com 1.10,2013-01-09 02:45:00,
2013-01-08 19:00:00,49.9,48.0,30.03,ENE,60,0.0,1.0,93,0.00,,,0.01,weatherlink.com 1.10,2013-01-09 03:00:00,
2013-01-08 19:30:00,49.4,47.0,30.03,NNE,33,2.0,2.0,92,0.00,,,0.01,weatherlink.com 1.10,2013-01-09 03:30:00,
2013-01-08 19:45:00,49.1,47.0,30.03,ENE,72,0.0,1.0,92,0.00,,,0.01,weatherlink.com 1.10,2013-01-09 03:45:00,
2013-01-08 20:00:00,48.7,47.0,30.02,NE,51,0.0,4.0,92,0.00,,,0.01,weatherlink.com 1.10,2013-01-09 04:00:00,
2013-01-08 20:15:00,48.5,46.0,30.02,NNW,347,1.0,4.0,92,0.00,,,0.01,weatherlink.com 1.10,2013-01-09 04:15:00,
2013-01-08 20:30:00,48.2,46.0,30.02,NNW,345,1.0,4.0,92,0.00,,,0.01,weatherlink.com 1.10,2013-01-09 04:30:00,
2013-01-08 20:45:00,47.7,46.0,30.02,NNE,23,0.0,5.0,92,0.00,,,0.01,weatherlink.com 1.10,2013-01-09 04:45:00,
2013-01-08 21:15:00,46.6,45.0,30.02,NNE,26,0.0,2.0,93,0.00,,,0.01,weatherlink.com 1.10,2013-01-09 05:15:00,
2013-01-08 21:30:00,46.3,45.0,30.03,North,360,0.0,1.0,94,0.00,,,0.01,weatherlink.com 1.10,2013-01-09 05:30:00,
2013-01-08 21:45:00,46.2,45.0,30.02,NE,39,0.0,1.0,94,0.00,,,0.01,weatherlink.com 1.10,2013-01-09 05:45:00,
2013-01-08 22:00:00,46.2,45.0,30.02,NE,42,0.0,1.0,94,0.00,,,0.01,weatherlink.com 1.10,2013-01-09 06:00:00,
2013-01-08 22:15:00,45.8,44.0,30.02,NE,44,0.0,1.0,94,0.00,,,0.01,weatherlink.com 1.10,2013-01-09 06:15:00,
2013-01-08 22:30:00,45.5,44.0,30.03,NNE,12,0.0,4.0,94,0.00,,,0.01,weatherlink.com 1.10,2013-01-09 06:30:00,
2013-01-08 22:45:00,44.7,43.0,30.03,NNE,12,0.0,0.0,94,0.00,,,0.01,weatherlink.com 1.10,2013-01-09 06:45:00,
2013-01-08 23:00:00,44.3,43.0,30.04,NNE,13,0.0,1.0,95,0.00,,,0.01,weatherlink.com 1.10,2013-01-09 07:00:00,
2013-01-08 23:15:00,44.7,43.0,30.04,NE,40,1.0,2.0,95,0.00,,,0.01,weatherlink.com 1.10,2013-01-09 07:15:00,
2013-01-08 23:30:00,44.9,44.0,30.04,NE,39,0.0,1.0,95,0.00,,,0.01,weatherlink.com 1.10,2013-01-09 07:30:00,
2013-01-08 23:45:00,44.6,43.0,30.04,NE,49,1.0,1.0,95,0.00,,,0.01,weatherlink.com 1.10,2013-01-09 07:45:00,